sensor_id;sensor_type;location;lat;lon;timestamp;temperature;humidity
15625;DHT22;7912;51.376;6.126;2023-03-20T00:02:21;12.10;99.90
15625;DHT22;7912;51.376;6.126;2023-03-20T00:04:50;12.20;99.90
15625;DHT22;7912;51.376;6.126;2023-03-20T00:07:17;12.20;99.90
15625;DHT22;7912;51.376;6.126;2023-03-20T00:09:45;12.20;99.90
15625;DHT22;7912;51.376;6.126;2023-03-20T00:12:14;12.20;99.90
15625;DHT22;7912;51.376;6.126;2023-03-20T00:14:46;12.20;99.90
15625;DHT22;7912;51.376;6.126;2023-03-20T00:17:18;12.20;99.90
15625;DHT22;7912;51.376;6.126;2023-03-20T00:19:46;12.20;99.90
15625;DHT22;7912;51.376;6.126;2023-03-20T00:22:17;12.20;99.90
15625;DHT22;7912;51.376;6.126;2023-03-20T00:24:44;12.20;99.90
15625;DHT22;7912;51.376;6.126;2023-03-20T00:27:14;12.20;99.90
15625;DHT22;7912;51.376;6.126;2023-03-20T00:29:43;12.20;99.90
15625;DHT22;7912;51.376;6.126;2023-03-20T00:32:11;12.20;99.90
15625;DHT22;7912;51.376;6.126;2023-03-20T00:34:39;12.20;99.90
15625;DHT22;7912;51.376;6.126;2023-03-20T00:37:09;12.20;99.90
15625;DHT22;7912;51.376;6.126;2023-03-20T00:39:40;12.20;99.90
15625;DHT22;7912;51.376;6.126;2023-03-20T00:42:19;12.20;99.90
15625;DHT22;7912;51.376;6.126;2023-03-20T00:44:52;12.20;99.90
15625;DHT22;7912;51.376;6.126;2023-03-20T00:47:22;12.20;99.90
15625;DHT22;7912;51.376;6.126;2023-03-20T00:49:52;12.20;99.90
15625;DHT22;7912;51.376;6.126;2023-03-20T00:52:24;12.20;99.90
15625;DHT22;7912;51.376;6.126;2023-03-20T00:54:51;12.20;99.90
15625;DHT22;7912;51.376;6.126;2023-03-20T01:00:42;12.20;99.90
15625;DHT22;7912;51.376;6.126;2023-03-20T01:05:39;12.10;99.90
15625;DHT22;7912;51.376;6.126;2023-03-20T01:08:13;12.10;99.90
15625;DHT22;7912;51.376;6.126;2023-03-20T01:10:43;12.10;99.90
15625;DHT22;7912;51.376;6.126;2023-03-20T01:13:22;12.10;99.90
15625;DHT22;7912;51.376;6.126;2023-03-20T01:15:57;12.10;99.90
15625;DHT22;7912;51.376;6.126;2023-03-20T01:18:26;12.10;99.90
15625;DHT22;7912;51.376;6.126;2023-03-20T01:20:54;12.10;99.90
15625;DHT22;7912;51.376;6.126;2023-03-20T01:23:21;12.10;99.90
15625;DHT22;7912;51.376;6.126;2023-03-20T01:25:49;12.10;99.90
15625;DHT22;7912;51.376;6.126;2023-03-20T01:28:21;12.10;99.90
15625;DHT22;7912;51.376;6.126;2023-03-20T01:30:49;12.20;99.90
15625;DHT22;7912;51.376;6.126;2023-03-20T01:33:19;12.20;99.90
15625;DHT22;7912;51.376;6.126;2023-03-20T01:35:49;12.20;99.90
15625;DHT22;7912;51.376;6.126;2023-03-20T01:38:23;12.20;99.90
15625;DHT22;7912;51.376;6.126;2023-03-20T01:43:26;12.10;99.90
15625;DHT22;7912;51.376;6.126;2023-03-20T01:51:23;12.20;99.90
15625;DHT22;7912;51.376;6.126;2023-03-20T01:54:04;12.20;99.90
15625;DHT22;7912;51.376;6.126;2023-03-20T01:56:45;12.20;99.90
15625;DHT22;7912;51.376;6.126;2023-03-20T01:59:30;12.10;99.90
15625;DHT22;7912;51.376;6.126;2023-03-20T02:02:16;12.10;99.90
15625;DHT22;7912;51.376;6.126;2023-03-20T02:04:57;12.20;99.90
15625;DHT22;7912;51.376;6.126;2023-03-20T02:07:32;12.20;99.90
15625;DHT22;7912;51.376;6.126;2023-03-20T02:10:09;12.20;99.90
15625;DHT22;7912;51.376;6.126;2023-03-20T02:12:40;12.10;99.90
15625;DHT22;7912;51.376;6.126;2023-03-20T02:15:10;12.10;99.90
15625;DHT22;7912;51.376;6.126;2023-03-20T02:17:42;12.10;99.90
15625;DHT22;7912;51.376;6.126;2023-03-20T02:22:49;12.10;99.90
15625;DHT22;7912;51.376;6.126;2023-03-20T02:26:02;12.10;99.90
15625;DHT22;7912;51.376;6.126;2023-03-20T02:45:12;12.00;99.90
15625;DHT22;7912;51.376;6.126;2023-03-20T02:47:54;11.90;99.90
15625;DHT22;7912;51.376;6.126;2023-03-20T02:53:53;11.80;99.90
15625;DHT22;7912;51.376;6.126;2023-03-20T03:00:14;11.60;99.90
15625;DHT22;7912;51.376;6.126;2023-03-20T03:03:22;11.60;99.90
15625;DHT22;7912;51.376;6.126;2023-03-20T03:08:48;11.50;99.90
15625;DHT22;7912;51.376;6.126;2023-03-20T03:11:20;11.40;99.90
15625;DHT22;7912;51.376;6.126;2023-03-20T03:13:51;11.40;99.90
15625;DHT22;7912;51.376;6.126;2023-03-20T03:16:31;11.30;99.90
15625;DHT22;7912;51.376;6.126;2023-03-20T03:19:07;11.30;99.90
15625;DHT22;7912;51.376;6.126;2023-03-20T03:21:46;11.30;99.90
15625;DHT22;7912;51.376;6.126;2023-03-20T03:24:27;11.20;99.90
15625;DHT22;7912;51.376;6.126;2023-03-20T03:27:25;11.20;99.90
15625;DHT22;7912;51.376;6.126;2023-03-20T03:30:02;11.20;99.90
15625;DHT22;7912;51.376;6.126;2023-03-20T03:32:47;11.10;99.90
15625;DHT22;7912;51.376;6.126;2023-03-20T03:35:19;11.20;99.90
15625;DHT22;7912;51.376;6.126;2023-03-20T03:40:52;11.10;99.90
15625;DHT22;7912;51.376;6.126;2023-03-20T03:43:56;11.10;99.90
15625;DHT22;7912;51.376;6.126;2023-03-20T03:46:52;11.10;99.90
15625;DHT22;7912;51.376;6.126;2023-03-20T03:49:35;11.00;99.90
15625;DHT22;7912;51.376;6.126;2023-03-20T03:52:11;11.00;99.90
15625;DHT22;7912;51.376;6.126;2023-03-20T03:54:57;11.00;99.90
15625;DHT22;7912;51.376;6.126;2023-03-20T03:57:36;11.00;99.90
15625;DHT22;7912;51.376;6.126;2023-03-20T04:00:16;10.90;99.90
15625;DHT22;7912;51.376;6.126;2023-03-20T04:02:50;10.90;99.90
15625;DHT22;7912;51.376;6.126;2023-03-20T04:05:22;10.90;99.90
15625;DHT22;7912;51.376;6.126;2023-03-20T04:07:55;10.80;99.90
15625;DHT22;7912;51.376;6.126;2023-03-20T04:10:25;10.80;99.90
15625;DHT22;7912;51.376;6.126;2023-03-20T04:12:53;10.80;99.90
15625;DHT22;7912;51.376;6.126;2023-03-20T04:15:21;10.80;99.90
15625;DHT22;7912;51.376;6.126;2023-03-20T04:17:48;10.80;99.90
15625;DHT22;7912;51.376;6.126;2023-03-20T04:20:16;10.70;99.90
15625;DHT22;7912;51.376;6.126;2023-03-20T04:22:47;10.70;99.90
15625;DHT22;7912;51.376;6.126;2023-03-20T04:25:20;10.70;99.90
15625;DHT22;7912;51.376;6.126;2023-03-20T04:27:50;10.70;99.90
15625;DHT22;7912;51.376;6.126;2023-03-20T04:30:18;10.70;99.90
15625;DHT22;7912;51.376;6.126;2023-03-20T04:32:45;10.60;99.90
15625;DHT22;7912;51.376;6.126;2023-03-20T04:35:14;10.60;99.90
15625;DHT22;7912;51.376;6.126;2023-03-20T04:37:42;10.60;99.90
15625;DHT22;7912;51.376;6.126;2023-03-20T04:40:13;10.50;99.90
15625;DHT22;7912;51.376;6.126;2023-03-20T04:42:41;10.50;99.90
15625;DHT22;7912;51.376;6.126;2023-03-20T04:45:11;10.50;99.90
15625;DHT22;7912;51.376;6.126;2023-03-20T04:47:38;10.50;99.90
15625;DHT22;7912;51.376;6.126;2023-03-20T04:50:07;10.50;99.90
15625;DHT22;7912;51.376;6.126;2023-03-20T04:52:36;10.40;99.90
15625;DHT22;7912;51.376;6.126;2023-03-20T04:55:06;10.40;99.90
15625;DHT22;7912;51.376;6.126;2023-03-20T04:57:34;10.40;99.90
15625;DHT22;7912;51.376;6.126;2023-03-20T05:00:06;10.40;99.90
15625;DHT22;7912;51.376;6.126;2023-03-20T05:02:37;10.30;99.90
15625;DHT22;7912;51.376;6.126;2023-03-20T05:05:07;10.30;99.90
15625;DHT22;7912;51.376;6.126;2023-03-20T05:07:37;10.30;99.90
15625;DHT22;7912;51.376;6.126;2023-03-20T05:10:05;10.30;99.90
15625;DHT22;7912;51.376;6.126;2023-03-20T05:12:33;10.40;99.90
15625;DHT22;7912;51.376;6.126;2023-03-20T05:15:04;10.30;99.90
15625;DHT22;7912;51.376;6.126;2023-03-20T05:17:32;10.30;99.90
15625;DHT22;7912;51.376;6.126;2023-03-20T05:19:59;10.40;99.90
15625;DHT22;7912;51.376;6.126;2023-03-20T05:22:27;10.30;99.90
15625;DHT22;7912;51.376;6.126;2023-03-20T05:24:55;10.30;99.90
15625;DHT22;7912;51.376;6.126;2023-03-20T05:27:23;10.30;99.90
15625;DHT22;7912;51.376;6.126;2023-03-20T05:29:50;10.30;99.90
15625;DHT22;7912;51.376;6.126;2023-03-20T05:32:19;10.30;99.90
15625;DHT22;7912;51.376;6.126;2023-03-20T05:34:47;10.30;99.90
15625;DHT22;7912;51.376;6.126;2023-03-20T05:37:15;10.30;99.90
15625;DHT22;7912;51.376;6.126;2023-03-20T05:39:42;10.30;99.90
15625;DHT22;7912;51.376;6.126;2023-03-20T05:42:10;10.30;99.90
15625;DHT22;7912;51.376;6.126;2023-03-20T05:44:37;10.20;99.90
15625;DHT22;7912;51.376;6.126;2023-03-20T05:47:08;10.30;99.90
15625;DHT22;7912;51.376;6.126;2023-03-20T05:49:39;10.30;99.90
15625;DHT22;7912;51.376;6.126;2023-03-20T05:52:07;10.30;99.90
15625;DHT22;7912;51.376;6.126;2023-03-20T05:54:36;10.20;99.90
15625;DHT22;7912;51.376;6.126;2023-03-20T05:57:03;10.20;99.90
15625;DHT22;7912;51.376;6.126;2023-03-20T05:59:30;10.20;99.90
15625;DHT22;7912;51.376;6.126;2023-03-20T06:01:59;10.30;99.90
15625;DHT22;7912;51.376;6.126;2023-03-20T06:04:30;10.30;99.90
15625;DHT22;7912;51.376;6.126;2023-03-20T06:06:58;10.30;99.90
15625;DHT22;7912;51.376;6.126;2023-03-20T06:09:25;10.30;99.90
15625;DHT22;7912;51.376;6.126;2023-03-20T06:11:55;10.30;99.90
15625;DHT22;7912;51.376;6.126;2023-03-20T06:14:23;10.30;99.90
15625;DHT22;7912;51.376;6.126;2023-03-20T06:16:51;10.40;99.90
15625;DHT22;7912;51.376;6.126;2023-03-20T06:19:20;10.30;99.90
15625;DHT22;7912;51.376;6.126;2023-03-20T06:21:51;10.40;99.90
15625;DHT22;7912;51.376;6.126;2023-03-20T06:24:21;10.40;99.90
15625;DHT22;7912;51.376;6.126;2023-03-20T06:26:53;10.40;99.90
15625;DHT22;7912;51.376;6.126;2023-03-20T06:29:21;10.40;99.90
15625;DHT22;7912;51.376;6.126;2023-03-20T06:31:49;10.40;99.90
15625;DHT22;7912;51.376;6.126;2023-03-20T06:34:16;10.50;99.90
15625;DHT22;7912;51.376;6.126;2023-03-20T06:39:50;10.50;99.90
15625;DHT22;7912;51.376;6.126;2023-03-20T06:42:18;10.60;99.90
15625;DHT22;7912;51.376;6.126;2023-03-20T06:44:45;10.60;99.90
15625;DHT22;7912;51.376;6.126;2023-03-20T06:47:26;10.60;99.90
15625;DHT22;7912;51.376;6.126;2023-03-20T06:49:56;10.70;99.90
15625;DHT22;7912;51.376;6.126;2023-03-20T06:52:24;10.70;99.90
15625;DHT22;7912;51.376;6.126;2023-03-20T06:54:51;10.70;99.90
15625;DHT22;7912;51.376;6.126;2023-03-20T06:57:21;10.80;99.90
15625;DHT22;7912;51.376;6.126;2023-03-20T06:59:50;10.80;99.90
15625;DHT22;7912;51.376;6.126;2023-03-20T07:02:20;10.80;99.90
15625;DHT22;7912;51.376;6.126;2023-03-20T07:04:47;10.90;99.90
15625;DHT22;7912;51.376;6.126;2023-03-20T07:07:15;10.90;99.90
15625;DHT22;7912;51.376;6.126;2023-03-20T07:09:51;10.90;99.90
15625;DHT22;7912;51.376;6.126;2023-03-20T07:12:30;11.00;99.90
15625;DHT22;7912;51.376;6.126;2023-03-20T07:14:58;11.10;99.90
15625;DHT22;7912;51.376;6.126;2023-03-20T07:21:19;11.20;99.90
15625;DHT22;7912;51.376;6.126;2023-03-20T07:23:51;11.30;99.90
15625;DHT22;7912;51.376;6.126;2023-03-20T07:26:22;11.40;99.90
15625;DHT22;7912;51.376;6.126;2023-03-20T07:28:50;11.50;99.90
15625;DHT22;7912;51.376;6.126;2023-03-20T07:31:23;11.50;99.90
15625;DHT22;7912;51.376;6.126;2023-03-20T07:33:53;11.60;99.90
15625;DHT22;7912;51.376;6.126;2023-03-20T07:36:23;11.60;99.90
15625;DHT22;7912;51.376;6.126;2023-03-20T07:38:51;11.70;99.90
15625;DHT22;7912;51.376;6.126;2023-03-20T07:41:19;11.80;99.90
15625;DHT22;7912;51.376;6.126;2023-03-20T07:43:47;11.90;99.90
15625;DHT22;7912;51.376;6.126;2023-03-20T07:46:15;12.00;99.90
15625;DHT22;7912;51.376;6.126;2023-03-20T07:48:43;12.00;99.90
15625;DHT22;7912;51.376;6.126;2023-03-20T07:51:12;12.10;99.90
15625;DHT22;7912;51.376;6.126;2023-03-20T07:53:39;12.20;99.90
15625;DHT22;7912;51.376;6.126;2023-03-20T07:56:08;12.30;99.90
15625;DHT22;7912;51.376;6.126;2023-03-20T07:58:36;12.30;99.90
15625;DHT22;7912;51.376;6.126;2023-03-20T08:01:04;12.30;99.90
15625;DHT22;7912;51.376;6.126;2023-03-20T08:03:32;12.30;99.90
15625;DHT22;7912;51.376;6.126;2023-03-20T08:06:00;12.40;99.90
15625;DHT22;7912;51.376;6.126;2023-03-20T08:08:27;12.40;99.90
15625;DHT22;7912;51.376;6.126;2023-03-20T08:10:55;12.40;99.90
15625;DHT22;7912;51.376;6.126;2023-03-20T08:13:23;12.40;99.90
15625;DHT22;7912;51.376;6.126;2023-03-20T08:15:50;12.40;99.90
15625;DHT22;7912;51.376;6.126;2023-03-20T08:18:18;12.40;99.90
15625;DHT22;7912;51.376;6.126;2023-03-20T08:21:07;12.40;99.90
15625;DHT22;7912;51.376;6.126;2023-03-20T08:23:35;12.40;99.90
15625;DHT22;7912;51.376;6.126;2023-03-20T08:26:03;12.50;99.90
15625;DHT22;7912;51.376;6.126;2023-03-20T08:28:31;12.50;99.90
15625;DHT22;7912;51.376;6.126;2023-03-20T08:31:13;12.50;99.90
15625;DHT22;7912;51.376;6.126;2023-03-20T08:33:41;12.50;99.90
15625;DHT22;7912;51.376;6.126;2023-03-20T08:36:08;12.60;99.90
15625;DHT22;7912;51.376;6.126;2023-03-20T08:38:36;12.60;99.90
15625;DHT22;7912;51.376;6.126;2023-03-20T08:41:06;12.70;99.90
15625;DHT22;7912;51.376;6.126;2023-03-20T08:43:33;12.70;99.90
15625;DHT22;7912;51.376;6.126;2023-03-20T08:46:03;12.80;99.90
15625;DHT22;7912;51.376;6.126;2023-03-20T08:48:31;12.80;99.90
15625;DHT22;7912;51.376;6.126;2023-03-20T08:50:59;12.90;99.90
15625;DHT22;7912;51.376;6.126;2023-03-20T08:53:27;12.90;99.90
15625;DHT22;7912;51.376;6.126;2023-03-20T08:55:55;13.00;99.90
15625;DHT22;7912;51.376;6.126;2023-03-20T08:58:22;13.00;99.90
15625;DHT22;7912;51.376;6.126;2023-03-20T09:00:50;13.00;99.90
15625;DHT22;7912;51.376;6.126;2023-03-20T09:03:19;13.00;99.90
15625;DHT22;7912;51.376;6.126;2023-03-20T09:05:49;13.00;99.90
15625;DHT22;7912;51.376;6.126;2023-03-20T09:08:18;13.00;99.90
15625;DHT22;7912;51.376;6.126;2023-03-20T09:14:57;13.10;99.90
15625;DHT22;7912;51.376;6.126;2023-03-20T09:17:25;13.20;99.90
15625;DHT22;7912;51.376;6.126;2023-03-20T09:26:23;13.20;99.90
15625;DHT22;7912;51.376;6.126;2023-03-20T09:28:51;13.30;99.90
15625;DHT22;7912;51.376;6.126;2023-03-20T09:31:18;13.30;99.90
15625;DHT22;7912;51.376;6.126;2023-03-20T09:33:57;13.30;99.90
15625;DHT22;7912;51.376;6.126;2023-03-20T09:36:24;13.40;99.90
15625;DHT22;7912;51.376;6.126;2023-03-20T09:38:52;13.40;99.90
15625;DHT22;7912;51.376;6.126;2023-03-20T09:41:22;13.40;99.90
15625;DHT22;7912;51.376;6.126;2023-03-20T09:44:11;13.40;99.90
15625;DHT22;7912;51.376;6.126;2023-03-20T09:52:21;13.50;99.90
15625;DHT22;7912;51.376;6.126;2023-03-20T09:54:56;13.50;99.90
15625;DHT22;7912;51.376;6.126;2023-03-20T09:57:44;13.40;99.90
15625;DHT22;7912;51.376;6.126;2023-03-20T10:00:25;13.40;99.90
15625;DHT22;7912;51.376;6.126;2023-03-20T10:03:06;13.40;99.90
15625;DHT22;7912;51.376;6.126;2023-03-20T10:06:00;13.40;99.90
15625;DHT22;7912;51.376;6.126;2023-03-20T10:08:36;13.40;99.90
15625;DHT22;7912;51.376;6.126;2023-03-20T10:11:26;13.30;99.90
15625;DHT22;7912;51.376;6.126;2023-03-20T10:17:36;13.20;99.90
15625;DHT22;7912;51.376;6.126;2023-03-20T10:20:27;13.20;99.90
15625;DHT22;7912;51.376;6.126;2023-03-20T10:23:07;13.20;99.90
15625;DHT22;7912;51.376;6.126;2023-03-20T10:26:04;13.10;99.90
15625;DHT22;7912;51.376;6.126;2023-03-20T10:28:50;13.10;99.90
15625;DHT22;7912;51.376;6.126;2023-03-20T10:32:00;13.20;99.90
15625;DHT22;7912;51.376;6.126;2023-03-20T10:40:41;13.30;99.90
15625;DHT22;7912;51.376;6.126;2023-03-20T10:43:30;13.40;99.90
15625;DHT22;7912;51.376;6.126;2023-03-20T10:46:12;13.40;99.90
15625;DHT22;7912;51.376;6.126;2023-03-20T10:48:59;13.50;99.90
15625;DHT22;7912;51.376;6.126;2023-03-20T10:54:35;13.50;99.90
15625;DHT22;7912;51.376;6.126;2023-03-20T10:57:26;13.40;99.90
15625;DHT22;7912;51.376;6.126;2023-03-20T10:59:58;13.40;99.90
15625;DHT22;7912;51.376;6.126;2023-03-20T11:02:29;13.30;99.90
15625;DHT22;7912;51.376;6.126;2023-03-20T11:04:59;13.30;99.90
15625;DHT22;7912;51.376;6.126;2023-03-20T11:07:34;13.30;99.90
15625;DHT22;7912;51.376;6.126;2023-03-20T11:16:25;13.30;99.90
15625;DHT22;7912;51.376;6.126;2023-03-20T11:19:07;13.40;99.90
15625;DHT22;7912;51.376;6.126;2023-03-20T11:21:52;13.40;99.90
15625;DHT22;7912;51.376;6.126;2023-03-20T11:27:17;13.50;99.90
15625;DHT22;7912;51.376;6.126;2023-03-20T11:29:51;13.50;99.90
15625;DHT22;7912;51.376;6.126;2023-03-20T11:32:29;13.60;99.90
15625;DHT22;7912;51.376;6.126;2023-03-20T11:38:05;13.80;99.90
15625;DHT22;7912;51.376;6.126;2023-03-20T11:40:39;13.80;99.90
15625;DHT22;7912;51.376;6.126;2023-03-20T11:43:17;13.80;99.90
15625;DHT22;7912;51.376;6.126;2023-03-20T11:45:59;13.90;99.90
15625;DHT22;7912;51.376;6.126;2023-03-20T11:49:16;13.90;99.90
15625;DHT22;7912;51.376;6.126;2023-03-20T11:52:14;13.90;99.90
15625;DHT22;7912;51.376;6.126;2023-03-20T11:54:49;13.90;99.90
15625;DHT22;7912;51.376;6.126;2023-03-20T11:57:41;13.90;99.90
15625;DHT22;7912;51.376;6.126;2023-03-20T12:00:20;13.90;99.90
15625;DHT22;7912;51.376;6.126;2023-03-20T12:02:50;13.90;99.90
15625;DHT22;7912;51.376;6.126;2023-03-20T12:05:34;13.90;99.90
15625;DHT22;7912;51.376;6.126;2023-03-20T12:08:08;13.90;99.90
15625;DHT22;7912;51.376;6.126;2023-03-20T12:10:45;13.90;99.90
15625;DHT22;7912;51.376;6.126;2023-03-20T12:13:38;13.90;99.90
15625;DHT22;7912;51.376;6.126;2023-03-20T12:16:14;14.00;99.90
15625;DHT22;7912;51.376;6.126;2023-03-20T12:22:22;14.00;99.90
15625;DHT22;7912;51.376;6.126;2023-03-20T12:25:17;14.10;99.90
15625;DHT22;7912;51.376;6.126;2023-03-20T12:30:55;14.30;99.90
15625;DHT22;7912;51.376;6.126;2023-03-20T12:33:57;14.40;99.90
15625;DHT22;7912;51.376;6.126;2023-03-20T12:36:45;14.50;99.90
15625;DHT22;7912;51.376;6.126;2023-03-20T12:39:32;14.70;99.90
15625;DHT22;7912;51.376;6.126;2023-03-20T12:42:29;14.80;99.90
15625;DHT22;7912;51.376;6.126;2023-03-20T12:45:39;15.00;99.90
15625;DHT22;7912;51.376;6.126;2023-03-20T12:49:23;15.10;99.90
15625;DHT22;7912;51.376;6.126;2023-03-20T13:01:14;15.40;99.90
15625;DHT22;7912;51.376;6.126;2023-03-20T13:04:03;15.30;99.90
15625;DHT22;7912;51.376;6.126;2023-03-20T13:19:06;15.40;99.90
15625;DHT22;7912;51.376;6.126;2023-03-20T13:24:49;15.30;99.90
15625;DHT22;7912;51.376;6.126;2023-03-20T13:33:30;15.40;99.90
15625;DHT22;7912;51.376;6.126;2023-03-20T13:38:58;15.40;99.90
15625;DHT22;7912;51.376;6.126;2023-03-20T13:41:33;15.40;99.90
15625;DHT22;7912;51.376;6.126;2023-03-20T13:44:03;15.30;99.90
15625;DHT22;7912;51.376;6.126;2023-03-20T13:46:44;15.30;99.90
15625;DHT22;7912;51.376;6.126;2023-03-20T13:49:26;15.30;99.90
15625;DHT22;7912;51.376;6.126;2023-03-20T14:03:17;15.30;99.90
15625;DHT22;7912;51.376;6.126;2023-03-20T14:05:51;15.20;99.90
15625;DHT22;7912;51.376;6.126;2023-03-20T14:08:32;15.20;99.90
15625;DHT22;7912;51.376;6.126;2023-03-20T14:13:50;15.20;99.90
15625;DHT22;7912;51.376;6.126;2023-03-20T14:16:27;15.20;99.90
15625;DHT22;7912;51.376;6.126;2023-03-20T14:19:16;15.30;99.90
15625;DHT22;7912;51.376;6.126;2023-03-20T14:21:52;15.30;99.90
15625;DHT22;7912;51.376;6.126;2023-03-20T14:24:29;15.40;99.90
15625;DHT22;7912;51.376;6.126;2023-03-20T14:27:04;15.50;99.90
15625;DHT22;7912;51.376;6.126;2023-03-20T14:29:35;15.60;99.90
15625;DHT22;7912;51.376;6.126;2023-03-20T14:32:28;15.70;99.90
15625;DHT22;7912;51.376;6.126;2023-03-20T14:35:23;15.70;99.90
15625;DHT22;7912;51.376;6.126;2023-03-20T14:49:52;15.90;99.90
15625;DHT22;7912;51.376;6.126;2023-03-20T14:52:43;15.90;99.90
15625;DHT22;7912;51.376;6.126;2023-03-20T14:57:51;15.70;99.90
15625;DHT22;7912;51.376;6.126;2023-03-20T15:00:28;15.70;99.90
15625;DHT22;7912;51.376;6.126;2023-03-20T15:03:09;15.60;99.90
15625;DHT22;7912;51.376;6.126;2023-03-20T15:05:40;15.50;99.90
15625;DHT22;7912;51.376;6.126;2023-03-20T15:11:53;15.40;99.90
15625;DHT22;7912;51.376;6.126;2023-03-20T15:14:38;15.30;99.90
15625;DHT22;7912;51.376;6.126;2023-03-20T15:17:33;15.30;99.90
15625;DHT22;7912;51.376;6.126;2023-03-20T15:23:00;15.10;99.90
15625;DHT22;7912;51.376;6.126;2023-03-20T15:31:31;14.90;99.90
15625;DHT22;7912;51.376;6.126;2023-03-20T15:34:03;14.80;99.90
15625;DHT22;7912;51.376;6.126;2023-03-20T15:36:38;14.70;99.90
15625;DHT22;7912;51.376;6.126;2023-03-20T15:39:13;14.70;99.90
15625;DHT22;7912;51.376;6.126;2023-03-20T15:41:46;14.60;99.90
15625;DHT22;7912;51.376;6.126;2023-03-20T15:44:37;14.60;99.90
15625;DHT22;7912;51.376;6.126;2023-03-20T15:47:13;14.60;99.90
15625;DHT22;7912;51.376;6.126;2023-03-20T15:49:58;14.60;99.90
15625;DHT22;7912;51.376;6.126;2023-03-20T15:55:06;14.60;99.90
15625;DHT22;7912;51.376;6.126;2023-03-20T15:57:40;14.60;99.90
15625;DHT22;7912;51.376;6.126;2023-03-20T16:00:21;14.60;99.90
15625;DHT22;7912;51.376;6.126;2023-03-20T16:03:07;14.60;99.90
15625;DHT22;7912;51.376;6.126;2023-03-20T16:05:42;14.60;99.90
15625;DHT22;7912;51.376;6.126;2023-03-20T16:08:37;14.60;99.90
15625;DHT22;7912;51.376;6.126;2023-03-20T16:11:16;14.60;99.90
15625;DHT22;7912;51.376;6.126;2023-03-20T16:13:46;14.60;99.90
15625;DHT22;7912;51.376;6.126;2023-03-20T16:16:35;14.50;99.90
15625;DHT22;7912;51.376;6.126;2023-03-20T16:19:19;14.50;99.90
15625;DHT22;7912;51.376;6.126;2023-03-20T16:21:52;14.50;99.90
15625;DHT22;7912;51.376;6.126;2023-03-20T16:24:28;14.50;99.90
15625;DHT22;7912;51.376;6.126;2023-03-20T16:26:57;14.40;99.90
15625;DHT22;7912;51.376;6.126;2023-03-20T16:29:26;14.40;99.90
15625;DHT22;7912;51.376;6.126;2023-03-20T16:34:50;14.40;99.90
15625;DHT22;7912;51.376;6.126;2023-03-20T16:37:27;14.30;99.90
15625;DHT22;7912;51.376;6.126;2023-03-20T16:40:19;14.30;99.90
15625;DHT22;7912;51.376;6.126;2023-03-20T16:43:02;14.30;99.90
15625;DHT22;7912;51.376;6.126;2023-03-20T16:45:43;14.30;99.90
15625;DHT22;7912;51.376;6.126;2023-03-20T16:50:45;14.20;99.90
15625;DHT22;7912;51.376;6.126;2023-03-20T16:53:19;14.20;99.90
15625;DHT22;7912;51.376;6.126;2023-03-20T16:55:48;14.10;99.90
15625;DHT22;7912;51.376;6.126;2023-03-20T16:58:21;14.10;99.90
15625;DHT22;7912;51.376;6.126;2023-03-20T17:01:00;14.00;99.90
15625;DHT22;7912;51.376;6.126;2023-03-20T17:03:45;14.00;99.90
15625;DHT22;7912;51.376;6.126;2023-03-20T17:08:51;13.90;99.90
15625;DHT22;7912;51.376;6.126;2023-03-20T17:15:28;13.90;99.90
15625;DHT22;7912;51.376;6.126;2023-03-20T17:17:56;13.80;99.90
15625;DHT22;7912;51.376;6.126;2023-03-20T17:20:27;13.80;99.90
15625;DHT22;7912;51.376;6.126;2023-03-20T17:22:57;13.80;99.90
15625;DHT22;7912;51.376;6.126;2023-03-20T17:25:24;13.80;99.90
15625;DHT22;7912;51.376;6.126;2023-03-20T17:27:55;13.80;99.90
15625;DHT22;7912;51.376;6.126;2023-03-20T17:30:41;13.80;99.90
15625;DHT22;7912;51.376;6.126;2023-03-20T17:33:14;13.70;99.90
15625;DHT22;7912;51.376;6.126;2023-03-20T17:35:43;13.70;99.90
15625;DHT22;7912;51.376;6.126;2023-03-20T17:38:17;13.70;99.90
15625;DHT22;7912;51.376;6.126;2023-03-20T17:40:48;13.60;99.90
15625;DHT22;7912;51.376;6.126;2023-03-20T17:43:18;13.60;99.90
15625;DHT22;7912;51.376;6.126;2023-03-20T17:45:49;13.60;99.90
15625;DHT22;7912;51.376;6.126;2023-03-20T17:48:19;13.50;99.90
15625;DHT22;7912;51.376;6.126;2023-03-20T17:50:48;13.50;99.90
15625;DHT22;7912;51.376;6.126;2023-03-20T17:53:21;13.50;99.90
15625;DHT22;7912;51.376;6.126;2023-03-20T17:55:53;13.50;99.90
15625;DHT22;7912;51.376;6.126;2023-03-20T17:58:22;13.40;99.90
15625;DHT22;7912;51.376;6.126;2023-03-20T18:00:51;13.40;99.90
15625;DHT22;7912;51.376;6.126;2023-03-20T18:03:20;13.40;99.90
15625;DHT22;7912;51.376;6.126;2023-03-20T18:06:05;13.40;99.90
15625;DHT22;7912;51.376;6.126;2023-03-20T18:08:33;13.40;99.90
15625;DHT22;7912;51.376;6.126;2023-03-20T18:11:02;13.40;99.90
15625;DHT22;7912;51.376;6.126;2023-03-20T18:13:30;13.40;99.90
15625;DHT22;7912;51.376;6.126;2023-03-20T18:15:58;13.40;99.90
15625;DHT22;7912;51.376;6.126;2023-03-20T18:18:25;13.40;99.90
15625;DHT22;7912;51.376;6.126;2023-03-20T18:20:53;13.40;99.90
15625;DHT22;7912;51.376;6.126;2023-03-20T18:23:23;13.40;99.90
15625;DHT22;7912;51.376;6.126;2023-03-20T18:25:50;13.40;99.90
15625;DHT22;7912;51.376;6.126;2023-03-20T18:28:18;13.40;99.90
15625;DHT22;7912;51.376;6.126;2023-03-20T18:30:49;13.40;99.90
15625;DHT22;7912;51.376;6.126;2023-03-20T18:40:34;13.40;99.90
15625;DHT22;7912;51.376;6.126;2023-03-20T18:43:03;13.40;99.90
15625;DHT22;7912;51.376;6.126;2023-03-20T18:45:31;13.40;99.90
15625;DHT22;7912;51.376;6.126;2023-03-20T18:47:58;13.40;99.90
15625;DHT22;7912;51.376;6.126;2023-03-20T18:50:32;13.40;99.90
15625;DHT22;7912;51.376;6.126;2023-03-20T18:53:05;13.40;99.90
15625;DHT22;7912;51.376;6.126;2023-03-20T18:55:34;13.40;99.90
15625;DHT22;7912;51.376;6.126;2023-03-20T18:58:05;13.40;99.90
15625;DHT22;7912;51.376;6.126;2023-03-20T19:00:40;13.40;99.90
15625;DHT22;7912;51.376;6.126;2023-03-20T19:03:10;13.40;99.90
15625;DHT22;7912;51.376;6.126;2023-03-20T19:05:40;13.30;99.90
15625;DHT22;7912;51.376;6.126;2023-03-20T19:08:14;13.30;99.90
15625;DHT22;7912;51.376;6.126;2023-03-20T19:10:45;13.30;99.90
15625;DHT22;7912;51.376;6.126;2023-03-20T19:13:15;13.30;99.90
15625;DHT22;7912;51.376;6.126;2023-03-20T19:15:44;13.30;99.90
15625;DHT22;7912;51.376;6.126;2023-03-20T19:18:19;13.30;99.90
15625;DHT22;7912;51.376;6.126;2023-03-20T19:20:51;13.30;99.90
15625;DHT22;7912;51.376;6.126;2023-03-20T19:23:23;13.30;99.90
15625;DHT22;7912;51.376;6.126;2023-03-20T19:25:54;13.30;99.90
15625;DHT22;7912;51.376;6.126;2023-03-20T19:28:23;13.30;99.90
15625;DHT22;7912;51.376;6.126;2023-03-20T19:31:05;13.30;99.90
15625;DHT22;7912;51.376;6.126;2023-03-20T19:33:33;13.30;99.90
15625;DHT22;7912;51.376;6.126;2023-03-20T19:36:04;13.30;99.90
15625;DHT22;7912;51.376;6.126;2023-03-20T19:42:42;13.30;99.90
15625;DHT22;7912;51.376;6.126;2023-03-20T19:52:21;13.30;99.90
15625;DHT22;7912;51.376;6.126;2023-03-20T19:54:54;13.20;99.90
15625;DHT22;7912;51.376;6.126;2023-03-20T19:57:31;13.20;99.90
15625;DHT22;7912;51.376;6.126;2023-03-20T19:59:58;13.20;99.90